createdAt,value
2018-05-01T00:00:18.994Z,12.20
2018-05-01T00:03:41.478Z,12.10
2018-05-01T00:07:03.925Z,12.00
2018-05-01T00:10:26.361Z,12.00
2018-05-01T00:13:49.570Z,11.90
2018-05-01T00:17:12.006Z,11.80
2018-05-01T00:20:35.215Z,11.80
2018-05-01T00:23:58.502Z,11.80
2018-05-01T00:27:20.933Z,11.80
2018-05-01T00:30:44.157Z,11.80
2018-05-01T00:34:06.593Z,11.70
2018-05-01T00:37:30.207Z,11.80
2018-05-01T00:40:52.632Z,11.70
2018-05-01T00:44:15.073Z,11.80
2018-05-01T00:47:37.537Z,11.70
2018-05-01T00:50:59.979Z,11.80
2018-05-01T00:54:22.436Z,11.80
2018-05-01T00:57:44.869Z,11.80
2018-05-01T01:01:08.895Z,11.70
2018-05-01T01:04:31.330Z,11.70
2018-05-01T01:07:54.534Z,11.70
2018-05-01T01:11:16.971Z,11.70
2018-05-01T01:14:41.269Z,11.70
2018-05-01T01:18:03.717Z,11.70
2018-05-01T01:21:26.159Z,11.70
2018-05-01T01:24:48.602Z,11.70
2018-05-01T01:28:11.046Z,11.80
2018-05-01T01:31:34.245Z,11.70
2018-05-01T01:34:57.120Z,11.70
2018-05-01T01:38:19.189Z,11.70
2018-05-01T01:41:41.133Z,11.60
2018-05-01T01:45:03.097Z,11.60
2018-05-01T01:48:25.041Z,11.60
2018-05-01T01:51:47.782Z,11.60
2018-05-01T01:55:10.530Z,11.60
2018-05-01T01:58:32.474Z,11.60
2018-05-01T02:01:54.413Z,11.60
2018-05-01T02:05:16.362Z,11.60
2018-05-01T02:08:38.317Z,11.60
2018-05-01T02:12:00.266Z,11.60
2018-05-01T02:15:22.217Z,11.60
2018-05-01T02:18:44.172Z,11.60
2018-05-01T02:22:07.094Z,11.60
2018-05-01T02:25:29.046Z,11.60
2018-05-01T02:28:51.042Z,11.60
2018-05-01T02:32:12.992Z,11.70
2018-05-01T02:35:34.938Z,11.70
2018-05-01T02:38:56.900Z,11.70
2018-05-01T02:42:18.848Z,11.60
2018-05-01T02:45:40.797Z,11.70
2018-05-01T02:49:02.751Z,11.70
2018-05-01T02:52:24.698Z,11.60
2018-05-01T02:55:46.658Z,11.60
2018-05-01T02:59:08.620Z,11.60
2018-05-01T03:02:30.566Z,11.60
2018-05-01T03:05:52.522Z,11.60
2018-05-01T03:09:14.469Z,11.50
2018-05-01T03:12:36.421Z,11.50
2018-05-01T03:15:58.373Z,11.50
2018-05-01T03:19:20.350Z,11.50
2018-05-01T03:22:42.312Z,11.50
2018-05-01T03:26:04.262Z,11.50
2018-05-01T03:29:26.221Z,11.40
2018-05-01T03:32:48.169Z,11.40
2018-05-01T03:36:10.121Z,11.40
2018-05-01T03:39:32.098Z,11.50
2018-05-01T03:42:54.041Z,11.40
2018-05-01T03:46:15.985Z,11.50
2018-05-01T03:49:37.937Z,11.50
2018-05-01T03:52:59.882Z,11.50
2018-05-01T03:56:21.834Z,11.50
2018-05-01T03:59:44.401Z,11.50
2018-05-01T04:03:06.341Z,11.50
2018-05-01T04:06:28.297Z,11.50
2018-05-01T04:09:50.265Z,11.70
2018-05-01T04:13:12.215Z,11.80
2018-05-01T04:16:34.166Z,11.80
2018-05-01T04:19:56.114Z,11.90
2018-05-01T04:23:18.061Z,11.90
2018-05-01T04:26:40.007Z,11.90
2018-05-01T04:30:01.966Z,11.90
2018-05-01T04:33:23.914Z,11.90
2018-05-01T04:36:45.872Z,11.90
2018-05-01T04:40:07.818Z,11.90
2018-05-01T04:43:29.765Z,11.90
2018-05-01T04:46:52.490Z,11.90
2018-05-01T04:50:14.449Z,11.90
2018-05-01T04:53:36.399Z,12.00
2018-05-01T04:56:58.343Z,11.90
2018-05-01T05:00:20.289Z,11.90
2018-05-01T05:03:42.233Z,11.90
2018-05-01T05:07:04.186Z,11.90
2018-05-01T05:10:26.140Z,12.00
2018-05-01T05:13:48.082Z,12.00
2018-05-01T05:17:10.035Z,12.00
2018-05-01T05:20:31.981Z,12.00
2018-05-01T05:23:54.755Z,12.00
2018-05-01T05:27:16.695Z,12.00
2018-05-01T05:30:38.656Z,12.00
2018-05-01T05:34:00.585Z,11.90
2018-05-01T05:37:23.314Z,12.00
2018-05-01T05:40:45.266Z,12.00
2018-05-01T05:44:07.201Z,12.00
2018-05-01T05:47:29.158Z,12.00
2018-05-01T05:50:51.115Z,12.00
2018-05-01T05:54:13.057Z,12.00
2018-05-01T05:57:35.010Z,12.10
2018-05-01T06:00:56.966Z,12.10
2018-05-01T06:04:18.910Z,12.20
2018-05-01T06:07:40.864Z,12.20
2018-05-01T06:11:03.068Z,12.20
2018-05-01T06:14:27.490Z,12.30
2018-05-01T06:17:49.595Z,12.30
2018-05-01T06:21:11.573Z,12.40
2018-05-01T06:24:33.544Z,12.50
2018-05-01T06:27:55.486Z,12.50
2018-05-01T06:31:17.510Z,12.50
2018-05-01T06:34:40.153Z,12.40
2018-05-01T06:38:02.865Z,12.40
2018-05-01T06:41:24.834Z,12.40
2018-05-01T06:44:47.557Z,12.40
2018-05-01T06:48:09.524Z,12.40
2018-05-01T06:51:31.458Z,12.40
2018-05-01T06:54:54.173Z,12.40
2018-05-01T06:58:16.122Z,12.40
2018-05-01T07:01:38.074Z,12.40
2018-05-01T07:05:00.026Z,12.50
2018-05-01T07:08:21.961Z,12.50
2018-05-01T07:11:43.916Z,12.60
2018-05-01T07:15:05.873Z,12.60
2018-05-01T07:18:27.819Z,12.60
2018-05-01T07:21:49.771Z,12.60
2018-05-01T07:25:11.725Z,12.60
2018-05-01T07:28:33.666Z,12.70
2018-05-01T07:31:55.631Z,12.70
2018-05-01T07:35:17.577Z,12.70
2018-05-01T07:38:39.526Z,12.80
2018-05-01T07:42:01.478Z,12.80
2018-05-01T07:45:24.195Z,13.00
2018-05-01T07:48:46.137Z,13.00
2018-05-01T07:52:08.086Z,13.20
2018-05-01T07:55:30.041Z,13.40
2018-05-01T07:58:51.995Z,13.60
2018-05-01T08:02:13.945Z,13.70
2018-05-01T08:05:35.894Z,13.80
2018-05-01T08:08:57.837Z,13.90
2018-05-01T08:12:19.793Z,13.90
2018-05-01T08:15:41.738Z,13.90
2018-05-01T08:19:03.685Z,13.90
2018-05-01T08:22:25.634Z,13.90
2018-05-01T08:25:47.606Z,14.30
2018-05-01T08:29:09.550Z,14.60
2018-05-01T08:32:31.506Z,14.80
2018-05-01T08:35:53.453Z,15.00
2018-05-01T08:39:15.398Z,15.40
2018-05-01T08:42:38.207Z,16.00
2018-05-01T08:46:00.153Z,16.00
2018-05-01T08:49:22.115Z,16.20
2018-05-01T08:52:44.174Z,16.30
2018-05-01T08:56:06.122Z,16.20
2018-05-01T08:59:28.073Z,16.20
2018-05-01T09:02:50.021Z,16.20
2018-05-01T09:06:11.986Z,16.30
2018-05-01T09:09:33.955Z,16.30
2018-05-01T09:12:55.885Z,16.40
2018-05-01T09:16:17.835Z,16.60
2018-05-01T09:19:39.790Z,16.50
2018-05-01T09:23:01.738Z,16.50
2018-05-01T09:26:23.735Z,16.40
2018-05-01T09:29:45.650Z,16.50
2018-05-01T09:33:07.706Z,16.60
2018-05-01T09:36:29.653Z,16.60
2018-05-01T09:39:51.617Z,16.50
2018-05-01T09:43:13.570Z,16.50
2018-05-01T09:46:35.526Z,16.10
2018-05-01T09:49:57.471Z,15.80
2018-05-01T09:53:20.009Z,15.50
2018-05-01T09:56:42.370Z,15.40
2018-05-01T10:00:04.802Z,15.10
2018-05-01T10:03:27.245Z,15.10
2018-05-01T10:06:49.691Z,15.20
2018-05-01T10:10:12.134Z,15.10
2018-05-01T10:13:34.613Z,15.00
2018-05-01T10:16:57.058Z,14.80
2018-05-01T10:20:19.510Z,14.60
2018-05-01T10:23:42.732Z,14.60
2018-05-01T10:27:05.201Z,14.50
2018-05-01T10:30:27.633Z,14.60
2018-05-01T10:33:50.850Z,14.40
2018-05-01T10:37:13.298Z,14.40
2018-05-01T10:40:35.738Z,14.40
2018-05-01T10:43:58.995Z,14.40
2018-05-01T10:47:21.386Z,14.40
2018-05-01T10:50:44.615Z,14.30
2018-05-01T10:54:07.337Z,14.20
2018-05-01T10:57:29.845Z,14.10
2018-05-01T11:00:52.289Z,14.10
2018-05-01T11:04:14.753Z,14.00
2018-05-01T11:07:37.197Z,14.00
2018-05-01T11:11:00.406Z,14.00
2018-05-01T11:14:22.847Z,14.00
2018-05-01T11:17:46.056Z,14.60
2018-05-01T11:21:08.538Z,14.50
2018-05-01T11:24:31.058Z,15.30
2018-05-01T11:27:53.418Z,16.00
2018-05-01T11:31:16.630Z,16.80
2018-05-01T11:34:39.065Z,16.80
2018-05-01T11:38:01.505Z,17.40
2018-05-01T11:41:23.950Z,17.80
2018-05-01T11:44:46.386Z,18.10
2018-05-01T11:48:09.356Z,18.20
2018-05-01T11:51:31.864Z,18.50
2018-05-01T11:54:54.297Z,18.80
2018-05-01T11:58:16.742Z,18.90
2018-05-01T12:01:39.950Z,19.20
2018-05-01T12:05:02.391Z,19.20
2018-05-01T12:08:25.605Z,19.90
2018-05-01T12:11:48.047Z,19.90
2018-05-01T12:15:10.493Z,20.10
2018-05-01T12:18:33.843Z,20.10
2018-05-01T12:21:56.249Z,20.10
2018-05-01T12:25:19.458Z,20.20
2018-05-01T12:28:41.922Z,20.20
2018-05-01T12:32:04.354Z,20.10
2018-05-01T12:35:27.553Z,19.90
2018-05-01T12:38:50.774Z,19.90
2018-05-01T12:42:13.271Z,19.90
2018-05-01T12:45:35.646Z,19.90
2018-05-01T12:48:58.097Z,19.90
2018-05-01T12:52:20.539Z,19.80
2018-05-01T12:55:42.974Z,19.60
2018-05-01T12:59:05.479Z,19.20
2018-05-01T13:02:28.638Z,18.90
2018-05-01T13:05:51.082Z,19.00
2018-05-01T13:09:13.534Z,19.00
2018-05-01T13:12:36.742Z,18.80
2018-05-01T13:15:59.183Z,18.80
2018-05-01T13:19:22.394Z,18.80
2018-05-01T13:22:44.833Z,18.70
2018-05-01T13:26:07.270Z,18.70
2018-05-01T13:29:29.714Z,18.50
2018-05-01T13:32:52.161Z,18.40
2018-05-01T13:36:14.600Z,18.30
2018-05-01T13:39:37.061Z,18.10
2018-05-01T13:42:59.500Z,18.10
2018-05-01T13:46:21.941Z,18.10
2018-05-01T13:49:44.469Z,18.20
2018-05-01T13:53:06.907Z,18.20
2018-05-01T13:56:30.109Z,18.10
2018-05-01T13:59:52.549Z,18.10
2018-05-01T14:03:15.762Z,18.00
2018-05-01T14:06:38.203Z,18.00
2018-05-01T14:10:01.413Z,18.00
2018-05-01T14:13:23.871Z,17.90
2018-05-01T14:16:46.511Z,17.90
2018-05-01T14:20:09.738Z,18.00
2018-05-01T14:23:32.385Z,18.00
2018-05-01T14:26:54.871Z,18.20
2018-05-01T14:30:17.495Z,18.30
2018-05-01T14:33:40.135Z,18.40
2018-05-01T14:37:02.732Z,18.50
2018-05-01T14:40:26.102Z,18.20
2018-05-01T14:43:48.779Z,18.20
2018-05-01T14:47:12.175Z,18.10
2018-05-01T14:50:34.752Z,18.10
2018-05-01T14:53:58.108Z,17.90
2018-05-01T14:57:20.725Z,17.80
2018-05-01T15:00:43.226Z,17.90
2018-05-01T15:04:05.861Z,17.90
2018-05-01T15:07:28.613Z,17.90
2018-05-01T15:10:51.155Z,17.80
2018-05-01T15:14:13.713Z,17.90
2018-05-01T15:17:36.357Z,17.80
2018-05-01T15:20:58.915Z,17.80
2018-05-01T15:24:21.523Z,17.70
2018-05-01T15:27:44.181Z,17.60
2018-05-01T15:31:06.611Z,17.60
2018-05-01T15:34:29.053Z,17.60
2018-05-01T15:37:52.862Z,17.80
2018-05-01T15:41:15.319Z,17.80
2018-05-01T15:44:38.541Z,17.90
2018-05-01T15:48:01.014Z,17.90
2018-05-01T15:51:23.437Z,17.90
2018-05-01T15:54:46.673Z,17.70
2018-05-01T15:58:09.114Z,17.70
2018-05-01T16:01:31.555Z,17.60
2018-05-01T16:04:54.757Z,17.30
2018-05-01T16:08:17.198Z,17.30
2018-05-01T16:11:40.449Z,17.00
2018-05-01T16:15:02.910Z,17.00
2018-05-01T16:18:25.364Z,17.00
2018-05-01T16:21:47.808Z,16.90
2018-05-01T16:25:10.255Z,16.80
2018-05-01T16:28:32.707Z,16.70
2018-05-01T16:31:55.915Z,16.60
2018-05-01T16:35:18.354Z,16.50
2018-05-01T16:38:41.568Z,16.50
2018-05-01T16:42:04.015Z,16.50
2018-05-01T16:45:26.450Z,16.60
2018-05-01T16:48:48.901Z,16.60
2018-05-01T16:52:11.334Z,16.50
2018-05-01T16:55:33.782Z,16.40
2018-05-01T16:58:56.282Z,16.50
2018-05-01T17:02:18.717Z,16.50
2018-05-01T17:05:41.241Z,16.40
2018-05-01T17:09:03.690Z,16.30
2018-05-01T17:12:26.198Z,16.20
2018-05-01T17:15:48.655Z,16.10
2018-05-01T17:19:11.870Z,15.90
2018-05-01T17:22:34.322Z,15.80
2018-05-01T17:25:56.776Z,15.80
2018-05-01T17:29:20.043Z,15.60
2018-05-01T17:32:43.255Z,15.50
2018-05-01T17:36:05.711Z,15.50
2018-05-01T17:39:28.150Z,15.50
2018-05-01T17:42:50.590Z,15.40
2018-05-01T17:46:13.073Z,15.30
2018-05-01T17:49:36.306Z,15.20
2018-05-01T17:52:58.806Z,15.20
2018-05-01T17:56:22.041Z,15.10
2018-05-01T17:59:44.491Z,15.10
2018-05-01T18:03:07.757Z,14.90
2018-05-01T18:06:30.289Z,14.90
2018-05-01T18:09:52.772Z,14.80
2018-05-01T18:13:15.190Z,14.70
2018-05-01T18:16:37.674Z,14.60
2018-05-01T18:20:00.123Z,14.50
2018-05-01T18:23:24.736Z,14.40
2018-05-01T18:26:47.917Z,14.20
2018-05-01T18:30:10.361Z,14.20
2018-05-01T18:33:33.572Z,14.00
2018-05-01T18:36:56.005Z,14.00
2018-05-01T18:40:19.214Z,13.80
2018-05-01T18:43:41.652Z,13.80
2018-05-01T18:47:04.864Z,13.70
2018-05-01T18:50:30.181Z,13.70
2018-05-01T18:53:50.517Z,13.60
2018-05-01T18:57:12.955Z,13.60
2018-05-01T19:00:36.160Z,13.50
2018-05-01T19:03:58.597Z,13.50
2018-05-01T19:07:21.809Z,13.40
2018-05-01T19:10:44.254Z,13.40
2018-05-01T19:14:07.457Z,13.40
2018-05-01T19:17:29.898Z,13.40
2018-05-01T19:20:53.112Z,13.20
2018-05-01T19:24:15.573Z,13.20
2018-05-01T19:27:38.015Z,13.20
2018-05-01T19:31:01.222Z,13.10
2018-05-01T19:34:23.762Z,13.10
2018-05-01T19:37:46.114Z,13.10
2018-05-01T19:41:09.372Z,13.00
2018-05-01T19:44:31.833Z,13.00
2018-05-01T19:47:54.263Z,13.00
2018-05-01T19:51:17.031Z,12.90
2018-05-01T19:54:39.469Z,12.90
2018-05-01T19:58:02.691Z,12.90
2018-05-01T20:01:25.133Z,12.90
2018-05-01T20:04:47.574Z,12.90
2018-05-01T20:08:10.773Z,12.80
2018-05-01T20:11:33.211Z,12.80
2018-05-01T20:14:55.655Z,12.80
2018-05-01T20:18:18.093Z,12.80
2018-05-01T20:21:40.551Z,12.70
2018-05-01T20:25:03.042Z,12.70
2018-05-01T20:28:25.497Z,12.60
2018-05-01T20:31:47.946Z,12.50
2018-05-01T20:35:10.386Z,12.50
2018-05-01T20:38:33.587Z,12.40
2018-05-01T20:41:56.026Z,12.40
2018-05-01T20:45:19.231Z,12.30
2018-05-01T20:48:41.675Z,12.30
2018-05-01T20:52:04.882Z,12.20
2018-05-01T20:55:27.346Z,12.20
2018-05-01T20:58:49.784Z,12.20
2018-05-01T21:02:12.218Z,12.20
2018-05-01T21:05:34.682Z,12.10
2018-05-01T21:08:57.117Z,12.10
2018-05-01T21:12:19.558Z,12.10
2018-05-01T21:15:42.766Z,12.00
2018-05-01T21:19:05.202Z,11.90
2018-05-01T21:22:28.509Z,11.90
2018-05-01T21:25:50.942Z,11.90
2018-05-01T21:29:14.146Z,11.80
2018-05-01T21:32:36.620Z,11.80
2018-05-01T21:35:59.810Z,11.80
2018-05-01T21:39:22.246Z,11.70
2018-05-01T21:42:45.462Z,11.70
2018-05-01T21:46:07.897Z,11.60
2018-05-01T21:49:31.201Z,11.60
2018-05-01T21:52:53.666Z,11.60
2018-05-01T21:56:16.098Z,11.60
2018-05-01T21:59:38.534Z,11.50
2018-05-01T22:03:01.063Z,11.50
2018-05-01T22:06:23.490Z,11.50
2018-05-01T22:09:46.697Z,11.40
2018-05-01T22:13:09.137Z,11.40
2018-05-01T22:16:31.577Z,11.40
2018-05-01T22:19:54.018Z,11.30
2018-05-01T22:23:16.458Z,11.30
2018-05-01T22:26:38.904Z,11.20
2018-05-01T22:30:02.093Z,11.20
2018-05-01T22:33:25.406Z,11.10
2018-05-01T22:36:47.866Z,11.10
2018-05-01T22:40:10.287Z,11.10
2018-05-01T22:43:32.730Z,11.00
2018-05-01T22:46:55.178Z,11.00
2018-05-01T22:50:17.610Z,11.00
2018-05-01T22:53:40.054Z,11.00
2018-05-01T22:57:03.270Z,10.90
2018-05-01T23:00:25.702Z,10.90
2018-05-01T23:03:48.918Z,10.90
2018-05-01T23:07:11.354Z,10.90
2018-05-01T23:10:34.557Z,10.90
2018-05-01T23:13:57.001Z,10.90
2018-05-01T23:17:20.214Z,10.90
2018-05-01T23:20:42.649Z,10.80
2018-05-01T23:24:05.857Z,10.80
2018-05-01T23:27:28.297Z,10.80
2018-05-01T23:30:51.514Z,10.80
2018-05-01T23:34:14.290Z,10.80
2018-05-01T23:37:36.729Z,10.80
2018-05-01T23:40:59.175Z,10.80
2018-05-01T23:44:22.381Z,10.80
2018-05-01T23:47:44.821Z,10.70
2018-05-01T23:51:07.266Z,10.80
2018-05-01T23:54:29.710Z,10.80
2018-05-01T23:57:52.147Z,10.70
